Time;durP1;ratioP1;P1;durP2;ratioP2;P2;SDS_P1;SDS_P2;PMS_P1;PMS_P2;Temp;Humidity;BMP_temperature;BMP_pressure;BME280_temperature;BME280_humidity;BME280_pressure;Samples;Min_cycle;Max_cycle;Signal;HPM_P1;HPM_P2
2023/10/03 00:00:53;;;;;;;10.98;7.72;;;20.60;72.30;;;;;;5115293;28;20241;-68
2023/10/03 00:03:19;;;;;;;10.38;7.55;;;20.60;72.30;;;;;;5134771;27;20176;-68
2023/10/03 00:05:46;;;;;;;10.63;6.85;;;20.60;72.30;;;;;;5135097;27;20176;-67
2023/10/03 00:08:13;;;;;;;10.45;7.88;;;20.50;72.20;;;;;;5135226;27;20173;-68
2023/10/03 00:10:39;;;;;;;10.63;7.28;;;20.60;72.30;;;;;;5134931;27;20233;-68
2023/10/03 00:13:07;;;;;;;11.35;8.15;;;20.60;72.30;;;;;;5134739;27;20643;-68
2023/10/03 00:15:33;;;;;;;10.18;7.22;;;20.60;72.40;;;;;;5135607;27;20173;-68
2023/10/03 00:17:59;;;;;;;10.40;7.25;;;20.60;72.40;;;;;;5135485;27;20179;-69
2023/10/03 00:20:24;;;;;;;10.25;6.97;;;20.60;72.30;;;;;;5134636;27;20172;-68
2023/10/03 00:22:50;;;;;;;9.30;7.18;;;20.50;72.30;;;;;;5135447;27;20172;-68
2023/10/03 00:25:19;;;;;;;10.45;7.57;;;20.50;72.20;;;;;;5134453;27;20259;-68
2023/10/03 00:27:51;;;;;;;9.63;7.30;;;20.60;72.30;;;;;;5134799;27;20169;-68
2023/10/03 00:30:21;;;;;;;12.65;7.35;;;20.50;72.30;;;;;;5135068;27;20176;-68
2023/10/03 00:32:48;;;;;;;10.15;7.00;;;20.50;72.20;;;;;;5135010;27;20229;-68
2023/10/03 00:35:15;;;;;;;11.32;8.05;;;20.50;72.20;;;;;;5134062;27;20245;-68
2023/10/03 00:37:43;;;;;;;10.32;6.78;;;20.50;72.20;;;;;;5135154;27;20180;-67
2023/10/03 00:42:47;;;;;;;10.05;7.13;;;20.50;72.20;;;;;;5134490;27;20187;-68
2023/10/03 00:45:21;;;;;;;9.27;6.70;;;20.50;72.20;;;;;;5134677;27;20173;-68
2023/10/03 00:47:50;;;;;;;10.13;6.95;;;20.50;72.20;;;;;;5133979;27;20289;-67
2023/10/03 00:50:16;;;;;;;10.65;7.32;;;20.60;72.30;;;;;;5134579;27;20618;-67
2023/10/03 00:52:44;;;;;;;9.50;7.20;;;20.50;72.20;;;;;;5116718;27;20251;-68
2023/10/03 00:55:11;;;;;;;9.20;6.85;;;20.50;72.20;;;;;;5115966;27;20175;-68
2023/10/03 00:57:37;;;;;;;9.52;7.18;;;20.50;72.20;;;;;;5116618;27;20169;-68
2023/10/03 01:00:14;;;;;;;10.55;7.55;;;20.50;72.20;;;;;;5134356;27;20222;-68
2023/10/03 01:02:47;;;;;;;9.25;6.88;;;20.50;72.20;;;;;;5134202;27;20268;-68
2023/10/03 01:05:15;;;;;;;9.05;6.53;;;20.50;72.20;;;;;;5133853;27;20180;-68
2023/10/03 01:07:44;;;;;;;10.73;7.65;;;20.50;72.20;;;;;;5134346;27;20635;-68
2023/10/03 01:10:12;;;;;;;10.25;6.90;;;20.50;72.20;;;;;;5133520;27;20582;-68
2023/10/03 01:12:38;;;;;;;9.80;7.45;;;20.50;72.20;;;;;;5134219;27;20172;-68
2023/10/03 01:15:11;;;;;;;11.55;7.85;;;20.50;72.20;;;;;;5134408;27;20183;-68
2023/10/03 01:17:37;;;;;;;8.93;6.55;;;20.50;72.20;;;;;;5133738;27;20169;-68
2023/10/03 01:20:08;;;;;;;10.13;7.43;;;20.50;72.20;;;;;;5134037;27;20635;-68
2023/10/03 01:22:37;;;;;;;9.30;6.63;;;20.50;72.20;;;;;;5134107;27;20191;-69
2023/10/03 01:25:06;;;;;;;9.13;7.10;;;20.50;72.20;;;;;;5133255;27;20233;-68
2023/10/03 01:27:32;;;;;;;10.30;7.07;;;20.50;72.20;;;;;;5134009;27;20176;-68
2023/10/03 01:29:57;;;;;;;10.32;7.28;;;20.50;72.20;;;;;;5133283;27;20176;-68
2023/10/03 01:32:23;;;;;;;10.82;7.15;;;20.50;72.20;;;;;;5134036;27;20168;-68
2023/10/03 01:34:49;;;;;;;10.00;6.90;;;20.40;72.20;;;;;;5115568;27;20207;-68
2023/10/03 01:37:14;;;;;;;10.63;7.72;;;20.50;72.20;;;;;;5132276;27;20287;-68
2023/10/03 01:39:40;;;;;;;9.00;6.82;;;20.50;72.20;;;;;;5133839;27;20188;-68
2023/10/03 01:42:07;;;;;;;11.52;7.95;;;20.50;72.20;;;;;;5133834;27;20634;-68
2023/10/03 01:44:32;;;;;;;10.40;7.15;;;20.50;72.30;;;;;;5133363;27;20172;-68
2023/10/03 01:46:58;;;;;;;11.18;7.38;;;20.50;72.20;;;;;;5133436;27;20276;-68
2023/10/03 01:49:24;;;;;;;10.25;7.75;;;20.40;72.20;;;;;;5133840;27;20187;-67
2023/10/03 01:51:50;;;;;;;10.25;7.18;;;20.50;72.30;;;;;;5133183;27;20255;-68
2023/10/03 01:54:15;;;;;;;10.02;7.20;;;20.50;72.20;;;;;;5133312;27;20536;-68
2023/10/03 01:56:41;;;;;;;10.55;7.75;;;20.40;72.20;;;;;;5133737;27;20580;-68
2023/10/03 01:59:07;;;;;;;9.13;6.90;;;20.40;72.20;;;;;;5132740;27;20658;-69
2023/10/03 02:01:37;;;;;;;9.00;7.20;;;20.50;72.20;;;;;;5133840;27;20168;-69
2023/10/03 02:04:03;;;;;;;10.95;7.80;;;20.50;72.20;;;;;;5133609;27;20228;-68
2023/10/03 02:06:29;;;;;;;11.25;7.10;;;20.50;72.20;;;;;;5132800;27;20251;-68
2023/10/03 02:08:56;;;;;;;11.13;7.53;;;20.50;72.20;;;;;;5133455;28;20171;-68
2023/10/03 02:11:26;;;;;;;10.70;7.75;;;20.40;72.20;;;;;;5133329;28;20220;-69
2023/10/03 02:13:52;;;;;;;9.80;7.22;;;20.40;72.20;;;;;;5132395;28;20219;-68
2023/10/03 02:16:20;;;;;;;9.95;7.05;;;20.40;72.20;;;;;;5132953;28;20275;-68
2023/10/03 02:18:45;;;;;;;9.68;7.15;;;20.40;72.20;;;;;;5133504;28;20184;-68
2023/10/03 02:21:16;;;;;;;9.85;7.15;;;20.40;72.20;;;;;;5132573;28;20176;-68
2023/10/03 02:23:42;;;;;;;11.00;7.45;;;20.40;72.20;;;;;;5115346;28;20176;-68
2023/10/03 02:26:10;;;;;;;11.65;7.97;;;20.40;72.20;;;;;;5132773;28;20180;-68
2023/10/03 02:28:36;;;;;;;11.05;7.70;;;20.40;72.20;;;;;;5133287;28;20182;-68
2023/10/03 02:31:07;;;;;;;10.30;7.28;;;20.40;72.20;;;;;;5133275;28;20172;-68
2023/10/03 02:33:32;;;;;;;10.68;7.72;;;20.40;72.20;;;;;;5132570;28;20482;-67
2023/10/03 02:35:58;;;;;;;12.48;8.27;;;20.40;72.20;;;;;;5133039;28;20619;-68
2023/10/03 02:38:29;;;;;;;10.68;7.55;;;20.40;72.20;;;;;;5133067;28;20267;-68
2023/10/03 02:40:57;;;;;;;10.55;7.72;;;20.30;72.10;;;;;;5132581;28;20638;-69
2023/10/03 02:43:22;;;;;;;10.25;7.80;;;20.40;72.20;;;;;;5132562;28;20187;-68
2023/10/03 02:45:48;;;;;;;8.68;7.15;;;20.40;72.20;;;;;;5133581;28;20260;-67
2023/10/03 02:48:14;;;;;;;11.38;8.07;;;20.40;72.20;;;;;;5132719;27;20262;-68
2023/10/03 02:50:43;;;;;;;13.68;8.77;;;20.40;72.20;;;;;;5137068;27;20172;-68
2023/10/03 02:53:19;;;;;;;12.07;8.35;;;20.40;72.20;;;;;;5137016;27;20196;-68
2023/10/03 02:55:46;;;;;;;12.40;7.93;;;20.40;72.20;;;;;;5136784;27;20184;-68
2023/10/03 02:58:16;;;;;;;11.02;7.88;;;20.40;72.20;;;;;;5136841;27;20521;-69
2023/10/03 03:00:43;;;;;;;11.20;8.02;;;20.40;72.20;;;;;;5137076;27;20176;-68
2023/10/03 03:03:09;;;;;;;10.30;7.47;;;20.40;72.20;;;;;;5136041;27;20267;-69
2023/10/03 03:05:36;;;;;;;11.73;8.27;;;20.40;72.20;;;;;;5136885;27;20172;-68
2023/10/03 03:08:23;;;;;;;12.20;7.93;;;20.40;73.00;;;;;;5136903;27;20168;-68
2023/10/03 03:10:57;;;;;;;12.05;8.45;;;20.40;72.20;;;;;;5136966;27;20176;-68
2023/10/03 03:13:31;;;;;;;11.60;7.95;;;20.40;72.20;;;;;;5136836;27;20196;-67
2023/10/03 03:16:00;;;;;;;11.00;7.93;;;20.40;72.20;;;;;;5136464;27;20172;-67
2023/10/03 03:18:40;;;;;;;11.80;7.63;;;20.50;72.20;;;;;;5136832;27;20500;-67
2023/10/03 03:21:08;;;;;;;13.27;9.18;;;20.40;72.20;;;;;;5136470;27;20172;-68
2023/10/03 03:23:39;;;;;;;12.15;7.35;;;20.40;72.20;;;;;;5135700;27;20261;-68
2023/10/03 03:26:17;;;;;;;11.27;7.88;;;20.40;72.20;;;;;;5136235;27;20175;-67
2023/10/03 03:28:45;;;;;;;14.05;8.35;;;20.40;72.20;;;;;;5136718;27;20207;-67
2023/10/03 03:31:21;;;;;;;12.20;8.30;;;20.40;72.20;;;;;;5135611;27;20176;-67
2023/10/03 03:33:56;;;;;;;11.05;7.70;;;20.40;72.20;;;;;;5136568;27;20287;-67
2023/10/03 03:36:23;;;;;;;11.60;8.27;;;20.40;72.20;;;;;;5135493;27;20179;-68
2023/10/03 03:38:49;;;;;;;11.43;7.85;;;20.40;72.20;;;;;;5135889;27;20188;-67
2023/10/03 03:41:15;;;;;;;11.68;8.48;;;20.40;72.20;;;;;;5136228;27;20251;-67
2023/10/03 03:43:42;;;;;;;12.38;8.65;;;20.40;72.20;;;;;;5135023;27;20638;-67
2023/10/03 03:46:08;;;;;;;11.85;8.23;;;20.40;72.20;;;;;;5135821;27;20168;-66
2023/10/03 03:48:34;;;;;;;11.32;7.45;;;20.40;72.20;;;;;;5136153;27;20180;-66
2023/10/03 03:51:06;;;;;;;12.98;8.35;;;20.40;72.20;;;;;;5135191;27;20172;-67
2023/10/03 03:53:32;;;;;;;12.05;8.40;;;20.40;72.20;;;;;;5135985;27;20212;-67
2023/10/03 03:56:05;;;;;;;10.63;8.20;;;20.40;72.20;;;;;;5135865;27;20176;-67
2023/10/03 03:58:31;;;;;;;9.95;7.30;;;20.40;72.20;;;;;;5135335;27;20276;-67
2023/10/03 04:00:58;;;;;;;10.25;7.57;;;20.40;72.20;;;;;;5134977;27;20627;-67
2023/10/03 04:03:24;;;;;;;11.30;7.97;;;20.40;72.20;;;;;;5135678;27;20178;-68
2023/10/03 04:05:50;;;;;;;12.20;8.40;;;20.40;72.20;;;;;;5135053;27;20168;-67
2023/10/03 04:08:16;;;;;;;11.85;8.10;;;20.40;72.20;;;;;;5135334;27;20657;-68
2023/10/03 04:10:45;;;;;;;10.35;7.00;;;20.40;72.20;;;;;;5135589;27;20255;-68
2023/10/03 04:13:11;;;;;;;15.13;8.88;;;20.40;72.20;;;;;;5134455;27;20206;-68
2023/10/03 04:15:40;;;;;;;11.85;7.93;;;20.30;72.10;;;;;;5135538;27;20176;-67
2023/10/03 04:18:07;;;;;;;12.23;7.88;;;20.40;72.20;;;;;;5135227;27;20221;-67
2023/10/03 04:20:35;;;;;;;14.00;8.80;;;20.40;72.20;;;;;;5134593;27;20707;-68
2023/10/03 04:23:03;;;;;;;11.07;8.10;;;20.40;72.20;;;;;;5135414;27;20206;-68
2023/10/03 04:25:29;;;;;;;11.13;8.20;;;20.40;72.20;;;;;;5135265;27;20172;-67
2023/10/03 04:27:55;;;;;;;11.75;8.10;;;20.40;72.20;;;;;;5134796;27;20172;-67
2023/10/03 04:30:24;;;;;;;10.90;8.10;;;20.40;72.20;;;;;;5134933;27;20702;-67
2023/10/03 04:32:50;;;;;;;11.35;8.27;;;20.40;72.20;;;;;;5134425;27;20738;-67
2023/10/03 04:35:18;;;;;;;14.25;8.93;;;20.40;72.20;;;;;;5135210;27;20180;-67
2023/10/03 04:37:44;;;;;;;12.15;8.23;;;20.40;72.30;;;;;;5135120;27;20176;-67
2023/10/03 04:40:20;;;;;;;13.07;9.10;;;20.30;72.10;;;;;;5134074;27;20180;-68
2023/10/03 04:42:46;;;;;;;11.52;8.30;;;20.40;72.20;;;;;;5135113;27;20248;-69
2023/10/03 04:45:14;;;;;;;11.00;7.85;;;20.40;72.20;;;;;;5134676;27;20255;-68
2023/10/03 04:47:45;;;;;;;11.52;8.00;;;20.30;72.10;;;;;;5134092;27;20231;-67
2023/10/03 04:50:11;;;;;;;11.35;8.35;;;20.40;72.20;;;;;;5134838;27;20259;-67
2023/10/03 04:52:37;;;;;;;10.95;7.80;;;20.40;72.20;;;;;;5134821;27;20192;-68
2023/10/03 04:55:03;;;;;;;12.68;7.80;;;20.30;73.20;;;;;;5133942;27;20208;-69
2023/10/03 04:57:29;;;;;;;14.00;8.40;;;20.30;72.30;;;;;;5134661;27;20171;-68
2023/10/03 04:59:59;;;;;;;11.75;7.43;;;20.40;72.40;;;;;;5134721;27;20229;-68
2023/10/03 05:02:28;;;;;;;12.35;8.93;;;20.40;72.30;;;;;;5133089;27;20189;-68
2023/10/03 05:04:54;;;;;;;13.10;8.93;;;20.30;72.50;;;;;;5134836;27;20366;-69
2023/10/03 05:07:19;;;;;;;11.50;8.20;;;20.40;72.60;;;;;;5134213;27;20229;-68
2023/10/03 05:09:45;;;;;;;12.98;8.57;;;20.30;72.40;;;;;;5133960;27;20164;-72
2023/10/03 05:12:14;;;;;;;12.20;8.52;;;20.40;72.50;;;;;;5134239;27;20176;-67
2023/10/03 05:14:43;;;;;;;12.88;8.35;;;20.40;72.50;;;;;;5134365;27;20212;-68
2023/10/03 05:17:12;;;;;;;11.57;8.00;;;20.40;72.50;;;;;;5133531;27;20636;-68
2023/10/03 05:19:39;;;;;;;12.52;8.25;;;20.40;72.50;;;;;;5134367;27;20212;-68
2023/10/03 05:22:08;;;;;;;11.13;7.80;;;20.40;72.50;;;;;;5133187;27;20181;-68
2023/10/03 05:24:34;;;;;;;12.15;7.53;;;20.30;72.40;;;;;;5134244;27;20542;-68
2023/10/03 05:26:59;;;;;;;12.98;8.20;;;20.30;72.40;;;;;;5133873;27;20189;-68
2023/10/03 05:29:27;;;;;;;12.07;7.78;;;20.30;72.40;;;;;;5133530;27;20176;-68
2023/10/03 05:31:54;;;;;;;11.75;7.70;;;20.30;72.40;;;;;;5134132;27;20173;-67
2023/10/03 05:34:23;;;;;;;11.63;7.72;;;20.40;72.50;;;;;;5115514;27;20208;-68
2023/10/03 05:36:48;;;;;;;12.32;7.72;;;20.30;72.40;;;;;;5133434;27;20261;-68
2023/10/03 05:39:15;;;;;;;10.05;6.93;;;20.30;72.40;;;;;;5133615;27;20630;-68
2023/10/03 05:41:41;;;;;;;11.05;7.13;;;20.30;72.40;;;;;;5115693;27;20221;-68
2023/10/03 05:44:13;;;;;;;10.75;7.82;;;20.30;72.30;;;;;;5133138;27;20187;-68
2023/10/03 05:46:42;;;;;;;12.13;7.88;;;20.30;72.30;;;;;;5133755;27;20230;-68
2023/10/03 05:49:11;;;;;;;9.25;6.85;;;20.40;72.30;;;;;;5133807;27;20195;-66
2023/10/03 05:51:37;;;;;;;11.90;7.65;;;20.30;72.20;;;;;;5133117;27;20260;-67
2023/10/03 05:54:05;;;;;;;9.63;7.60;;;20.40;72.40;;;;;;5133462;27;20291;-68
2023/10/03 05:56:30;;;;;;;10.25;7.47;;;20.30;72.20;;;;;;5133848;27;20176;-68
2023/10/03 05:58:56;;;;;;;10.95;7.65;;;20.30;72.20;;;;;;5133124;27;20173;-68
2023/10/03 06:01:21;;;;;;;10.52;7.22;;;20.30;72.30;;;;;;5133417;27;20176;-69
2023/10/03 06:03:47;;;;;;;11.05;7.38;;;20.30;72.20;;;;;;5133699;27;20164;-68
2023/10/03 06:06:14;;;;;;;10.20;6.28;;;20.40;72.40;;;;;;5132592;27;20634;-69
2023/10/03 06:08:40;;;;;;;11.32;7.13;;;20.40;72.40;;;;;;5133750;27;20255;-69
2023/10/03 06:11:05;;;;;;;10.25;6.80;;;20.30;72.30;;;;;;5133566;27;20218;-69
2023/10/03 06:13:31;;;;;;;9.95;6.85;;;20.40;72.40;;;;;;5132727;28;20212;-69
2023/10/03 06:16:00;;;;;;;9.40;6.95;;;20.30;73.30;;;;;;5133651;28;20630;-68
2023/10/03 06:18:27;;;;;;;9.43;7.25;;;20.30;72.30;;;;;;5132846;28;20208;-68
2023/10/03 06:20:53;;;;;;;9.93;6.65;;;20.30;72.40;;;;;;5133394;28;20172;-68
2023/10/03 06:23:18;;;;;;;8.88;6.80;;;20.30;72.40;;;;;;5133743;27;20576;-68
2023/10/03 06:25:44;;;;;;;8.43;6.35;;;20.30;72.40;;;;;;5136990;27;20252;-68
2023/10/03 06:28:09;;;;;;;13.82;6.07;;;20.30;72.40;;;;;;5137501;27;20188;-68
2023/10/03 06:30:37;;;;;;;10.93;6.47;;;20.30;72.30;;;;;;5137546;27;20180;-67
2023/10/03 06:33:05;;;;;;;10.20;6.90;;;20.30;72.20;;;;;;5136845;27;20223;-67
2023/10/03 06:35:32;;;;;;;8.25;6.10;;;20.30;72.20;;;;;;5137535;27;20184;-67
2023/10/03 06:37:57;;;;;;;9.43;6.75;;;20.30;72.10;;;;;;5137546;27;20247;-68
2023/10/03 06:40:23;;;;;;;9.02;6.22;;;20.30;72.20;;;;;;5136097;27;20271;-69
2023/10/03 06:42:48;;;;;;;9.55;6.90;;;20.40;72.20;;;;;;5137589;27;20626;-68
2023/10/03 06:45:14;;;;;;;9.45;5.60;;;20.40;72.20;;;;;;5137279;27;20594;-72
2023/10/03 06:47:39;;;;;;;8.82;6.07;;;20.40;72.20;;;;;;5136430;27;20220;-68
2023/10/03 06:50:06;;;;;;;8.77;6.03;;;20.40;72.20;;;;;;5136895;27;20164;-69
2023/10/03 06:52:32;;;;;;;9.57;5.82;;;20.40;72.20;;;;;;5137340;27;20263;-69
2023/10/03 06:54:58;;;;;;;10.18;6.40;;;20.40;72.20;;;;;;5136311;27;20299;-69
2023/10/03 06:57:24;;;;;;;9.20;6.28;;;20.40;72.20;;;;;;5136807;27;20686;-70
2023/10/03 06:59:50;;;;;;;11.32;6.05;;;20.50;72.20;;;;;;5137345;27;20267;-68
2023/10/03 07:02:15;;;;;;;10.95;6.28;;;20.50;72.20;;;;;;5136011;27;20164;-68
2023/10/03 07:04:41;;;;;;;9.32;6.45;;;20.50;72.20;;;;;;5136828;27;20177;-67
2023/10/03 07:07:07;;;;;;;8.70;6.15;;;20.50;72.20;;;;;;5136541;27;20168;-68
2023/10/03 07:09:33;;;;;;;8.30;6.32;;;20.50;73.10;;;;;;5136088;27;20183;-69
2023/10/03 07:11:59;;;;;;;8.98;5.93;;;20.50;72.10;;;;;;5137005;27;20169;-68
2023/10/03 07:14:24;;;;;;;7.85;5.50;;;20.50;72.00;;;;;;5136602;27;20670;-70
2023/10/03 07:16:50;;;;;;;9.20;6.15;;;20.50;71.90;;;;;;5136109;27;20657;-70
2023/10/03 07:19:16;;;;;;;7.93;5.18;;;20.60;72.00;;;;;;5136324;27;20618;-71
2023/10/03 07:21:44;;;;;;;7.10;5.43;;;20.60;72.00;;;;;;5135751;27;20175;-70
2023/10/03 07:24:10;;;;;;;8.02;5.78;;;20.50;72.00;;;;;;5136543;27;20180;-70
2023/10/03 07:26:35;;;;;;;9.57;5.68;;;20.50;72.10;;;;;;5136664;27;20578;-70
2023/10/03 07:29:02;;;;;;;9.60;5.85;;;20.50;72.20;;;;;;5135727;27;20601;-70
2023/10/03 07:31:31;;;;;;;7.40;5.65;;;20.50;72.20;;;;;;5118097;27;20226;-70
2023/10/03 07:33:57;;;;;;;7.90;5.72;;;20.50;72.20;;;;;;5136354;27;20216;-70
2023/10/03 07:36:23;;;;;;;8.57;5.82;;;20.40;72.30;;;;;;5134390;27;20240;-70
2023/10/03 07:38:49;;;;;;;9.02;5.20;;;20.40;72.20;;;;;;5136544;27;20168;-71
2023/10/03 07:41:17;;;;;;;6.95;5.18;;;20.40;72.20;;;;;;5136207;27;20169;-71
2023/10/03 07:43:47;;;;;;;6.35;4.57;;;20.40;72.20;;;;;;5135515;27;20176;-69
2023/10/03 07:46:22;;;;;;;7.43;5.40;;;20.40;72.20;;;;;;5135623;27;20298;-68
2023/10/03 07:48:52;;;;;;;7.10;4.70;;;20.40;72.20;;;;;;5136448;27;20187;-69
2023/10/03 07:51:17;;;;;;;7.03;5.15;;;20.40;72.20;;;;;;5135130;27;20954;-70
2023/10/03 07:53:43;;;;;;;7.95;5.07;;;20.30;72.10;;;;;;5136171;27;20253;-70
2023/10/03 07:56:30;;;;;;;6.55;5.05;;;20.40;72.20;;;;;;5135633;27;20176;-69
2023/10/03 07:58:56;;;;;;;7.22;5.05;;;20.30;72.20;;;;;;5135331;27;20225;-71
2023/10/03 08:01:24;;;;;;;6.70;5.40;;;20.40;72.20;;;;;;5135698;27;20169;-70
2023/10/03 08:03:54;;;;;;;7.35;5.30;;;20.40;72.20;;;;;;5135323;27;20172;-70
2023/10/03 08:06:33;;;;;;;6.95;4.70;;;20.40;72.20;;;;;;5135462;27;20172;-72
2023/10/03 08:08:59;;;;;;;7.13;4.75;;;20.40;72.20;;;;;;5135701;27;20249;-71
2023/10/03 08:11:34;;;;;;;6.57;5.00;;;20.40;72.20;;;;;;5134708;27;20173;-70
2023/10/03 08:14:11;;;;;;;6.15;4.60;;;20.40;72.20;;;;;;5135330;27;20674;-69
2023/10/03 08:16:40;;;;;;;8.52;5.63;;;20.40;72.20;;;;;;5135755;27;20180;-70
2023/10/03 08:19:08;;;;;;;6.32;4.57;;;20.40;72.20;;;;;;5134686;27;20528;-70
2023/10/03 08:21:35;;;;;;;5.35;4.43;;;20.40;72.20;;;;;;5135531;27;20215;-69
2023/10/03 08:24:09;;;;;;;6.75;5.07;;;20.40;72.20;;;;;;5135168;27;20229;-70
2023/10/03 08:26:35;;;;;;;7.95;4.90;;;20.40;72.20;;;;;;5134888;27;20182;-70
2023/10/03 08:29:04;;;;;;;6.95;5.18;;;20.40;72.20;;;;;;5135072;27;20580;-70
2023/10/03 08:31:32;;;;;;;6.88;5.32;;;20.40;72.20;;;;;;5135283;27;20200;-70
2023/10/03 08:33:58;;;;;;;7.55;5.22;;;20.40;72.20;;;;;;5134175;27;20239;-70
2023/10/03 08:36:31;;;;;;;5.82;4.72;;;20.40;72.20;;;;;;5134945;27;20200;-71
2023/10/03 08:39:12;;;;;;;7.15;5.00;;;20.50;72.20;;;;;;5134708;27;20184;-71
2023/10/03 08:41:47;;;;;;;6.22;4.35;;;20.40;72.20;;;;;;5134989;27;20954;-71
2023/10/03 08:44:13;;;;;;;5.97;4.85;;;20.40;72.20;;;;;;5134678;27;20172;-69
2023/10/03 08:46:49;;;;;;;7.68;5.25;;;20.40;72.20;;;;;;5133618;27;20245;-69
2023/10/03 08:49:18;;;;;;;4.97;4.22;;;20.40;72.20;;;;;;5134958;27;20176;-69
2023/10/03 08:51:47;;;;;;;5.85;4.63;;;20.40;72.20;;;;;;5117025;27;20176;-69
2023/10/03 08:54:13;;;;;;;6.00;4.47;;;20.40;72.20;;;;;;5115564;27;20208;-69
2023/10/03 08:56:40;;;;;;;5.30;4.45;;;20.40;72.20;;;;;;5134508;27;20194;-70
2023/10/03 08:59:09;;;;;;;6.32;4.40;;;20.40;72.20;;;;;;5134393;27;20180;-69
2023/10/03 09:01:38;;;;;;;6.60;4.18;;;20.40;72.20;;;;;;5115410;27;20179;-68
2023/10/03 09:04:05;;;;;;;8.82;4.65;;;20.30;72.10;;;;;;5116551;27;20173;-69
2023/10/03 09:06:38;;;;;;;6.90;4.90;;;20.40;72.20;;;;;;5116234;27;20214;-68
2023/10/03 09:09:13;;;;;;;4.63;4.03;;;20.40;72.30;;;;;;5133711;27;20184;-68
2023/10/03 09:11:39;;;;;;;4.25;3.78;;;20.40;72.40;;;;;;5134301;27;20179;-67
2023/10/03 09:14:08;;;;;;;5.93;3.85;;;20.40;72.30;;;;;;5133843;27;20236;-67
2023/10/03 09:16:38;;;;;;;5.00;4.00;;;20.40;72.20;;;;;;5134391;27;20172;-68
2023/10/03 09:19:09;;;;;;;6.00;4.60;;;20.50;72.50;;;;;;5134496;27;20200;-68
2023/10/03 09:21:35;;;;;;;5.85;4.40;;;20.50;72.80;;;;;;5133459;27;20566;-68
2023/10/03 09:24:02;;;;;;;6.40;4.10;;;20.50;72.90;;;;;;5133989;27;20209;-66
2023/10/03 09:26:45;;;;;;;4.85;3.75;;;20.50;72.90;;;;;;5133818;27;20168;-67
2023/10/03 09:29:29;;;;;;;4.57;3.95;;;20.50;73.60;;;;;;5117149;27;20224;-68
2023/10/03 09:31:57;;;;;;;5.47;3.92;;;20.60;72.60;;;;;;5134131;27;20184;-68
2023/10/03 09:34:23;;;;;;;4.60;3.90;;;20.60;72.70;;;;;;5133716;27;20235;-68
2023/10/03 09:36:48;;;;;;;5.07;3.90;;;20.60;72.90;;;;;;5115202;27;20576;-68
2023/10/03 09:39:21;;;;;;;5.82;4.00;;;20.60;73.20;;;;;;5133639;27;20173;-68
2023/10/03 09:41:55;;;;;;;4.65;3.85;;;20.60;72.90;;;;;;5134076;27;20194;-68
2023/10/03 09:44:29;;;;;;;4.80;3.40;;;20.70;73.10;;;;;;5129919;27;20210;-67
2023/10/03 09:47:00;;;;;;;7.10;3.78;;;20.70;72.90;;;;;;5129651;27;20228;-68
2023/10/03 09:49:36;;;;;;;3.40;2.67;;;20.70;72.60;;;;;;5099054;28;20177;-67
2023/10/03 09:52:16;;;;;;;4.88;3.03;;;20.80;72.50;;;;;;5113280;28;20176;-67
2023/10/03 09:54:42;;;;;;;5.68;3.00;;;20.80;72.60;;;;;;5113202;28;20265;-68
2023/10/03 09:57:16;;;;;;;4.22;3.45;;;20.80;72.60;;;;;;5111964;28;20195;-69
2023/10/03 09:59:45;;;;;;;5.30;2.65;;;20.80;72.70;;;;;;5112281;28;20169;-68
2023/10/03 10:02:12;;;;;;;4.40;3.15;;;20.80;72.70;;;;;;5112768;28;20176;-67
2023/10/03 10:04:38;;;;;;;3.70;2.75;;;20.70;72.70;;;;;;5112215;28;20759;-68
2023/10/03 10:07:33;;;;;;;3.47;2.78;;;20.70;72.90;;;;;;5077548;28;20257;-67
2023/10/03 10:10:12;;;;;;;3.85;2.33;;;20.70;73.10;;;;;;5075327;28;20185;-68
2023/10/03 10:12:37;;;;;;;3.08;2.50;;;20.70;73.10;;;;;;5112315;28;20177;-67
2023/10/03 10:17:49;;;;;;;3.10;2.40;;;20.70;73.10;;;;;;5112334;28;20179;-68
2023/10/03 10:20:32;;;;;;;4.28;2.53;;;20.70;73.00;;;;;;5112696;28;20177;-68
2023/10/03 10:22:58;;;;;;;4.55;2.30;;;20.70;72.90;;;;;;5112866;28;20181;-68
2023/10/03 10:25:27;;;;;;;4.05;2.50;;;20.70;72.70;;;;;;5112161;28;20169;-68
2023/10/03 10:28:02;;;;;;;3.25;2.22;;;20.70;72.50;;;;;;5112819;28;20177;-68
2023/10/03 10:30:28;;;;;;;3.85;2.22;;;20.70;72.40;;;;;;5094657;28;20168;-68
2023/10/03 10:33:16;;;;;;;3.75;2.80;;;20.80;72.50;;;;;;5111898;28;20173;-69
2023/10/03 10:36:03;;;;;;;3.85;2.63;;;20.80;72.50;;;;;;5112751;28;20185;-69
2023/10/03 10:38:31;;;;;;;2.80;1.95;;;20.80;72.50;;;;;;5112260;28;20545;-70
2023/10/03 10:41:22;;;;;;;3.50;2.00;;;20.80;72.40;;;;;;5112673;28;20175;-69
2023/10/03 10:44:06;;;;;;;2.92;2.10;;;20.80;72.50;;;;;;5112673;28;20181;-68
2023/10/03 10:46:42;;;;;;;3.15;2.28;;;20.80;72.50;;;;;;5111775;28;20233;-68
2023/10/03 10:49:40;;;;;;;3.00;1.90;;;20.70;72.40;;;;;;5112400;28;20203;-68
2023/10/03 10:52:09;;;;;;;3.08;1.90;;;20.70;72.40;;;;;;5112630;28;20169;-68
2023/10/03 10:54:38;;;;;;;3.70;1.98;;;20.70;72.40;;;;;;5111907;28;20217;-69
2023/10/03 10:57:09;;;;;;;2.35;1.83;;;20.80;72.50;;;;;;5112210;28;20177;-69
2023/10/03 10:59:41;;;;;;;3.05;1.83;;;20.80;72.30;;;;;;5112174;28;20180;-68
2023/10/03 11:02:15;;;;;;;1.80;1.67;;;20.80;72.40;;;;;;5112209;28;20226;-68
2023/10/03 11:04:41;;;;;;;2.65;1.80;;;20.80;72.40;;;;;;5112587;28;20180;-68
2023/10/03 11:07:06;;;;;;;1.85;1.67;;;20.80;72.40;;;;;;5111685;28;20540;-68
2023/10/03 11:09:36;;;;;;;2.55;1.65;;;20.80;72.40;;;;;;5113771;28;20195;-68
2023/10/03 11:12:06;;;;;;;2.15;1.67;;;20.70;72.30;;;;;;5116016;28;20177;-68
2023/10/03 11:14:33;;;;;;;3.72;1.90;;;20.80;72.50;;;;;;5115343;28;20656;-68
2023/10/03 11:17:02;;;;;;;3.25;2.00;;;20.80;72.40;;;;;;5115846;28;20279;-68
2023/10/03 11:19:31;;;;;;;2.72;1.48;;;20.80;72.20;;;;;;5115838;28;20532;-68
2023/10/03 11:21:56;;;;;;;1.42;1.30;;;20.80;72.10;;;;;;5097502;28;20540;-71
2023/10/03 11:24:22;;;;;;;1.50;1.40;;;20.80;72.10;;;;;;5115808;28;20173;-69
2023/10/03 11:26:51;;;;;;;2.33;1.30;;;20.80;72.10;;;;;;5116142;28;20169;-70
2023/10/03 11:29:49;;;;;;;2.38;1.60;;;20.90;72.20;;;;;;5114856;28;20658;-69
2023/10/03 11:32:33;;;;;;;3.30;1.38;;;20.90;72.00;;;;;;5070286;28;20193;-68
2023/10/03 11:35:13;;;;;;;3.72;1.90;;;20.80;71.90;;;;;;5114836;28;20219;-69
2023/10/03 11:37:45;;;;;;;2.70;1.45;;;20.80;72.10;;;;;;5115709;28;20251;-68
2023/10/03 11:40:13;;;;;;;3.95;1.73;;;20.80;72.10;;;;;;5115738;28;20165;-73
2023/10/03 11:42:44;;;;;;;3.20;1.40;;;20.80;72.20;;;;;;5115029;28;20172;-75
2023/10/03 11:45:13;;;;;;;4.50;1.65;;;20.80;72.10;;;;;;5114665;28;20185;-72
2023/10/03 11:47:39;;;;;;;3.33;1.70;;;20.80;72.10;;;;;;5115437;28;20231;-74
2023/10/03 11:50:06;;;;;;;3.35;1.70;;;20.80;72.10;;;;;;5114681;28;20230;-73
2023/10/03 11:52:32;;;;;;;3.45;1.88;;;20.80;72.10;;;;;;5115601;28;20202;-73
2023/10/03 11:54:58;;;;;;;2.75;1.38;;;20.80;72.20;;;;;;5097144;28;20217;-76
2023/10/03 11:57:24;;;;;;;3.22;1.23;;;20.80;72.30;;;;;;5114279;28;20173;-74
2023/10/03 11:59:50;;;;;;;2.63;1.33;;;20.80;72.30;;;;;;5115466;28;20165;-72
2023/10/03 12:02:16;;;;;;;2.70;1.38;;;20.80;72.40;;;;;;5115139;28;20552;-70
2023/10/03 12:04:41;;;;;;;3.20;1.30;;;20.80;72.40;;;;;;5114358;28;20192;-71
2023/10/03 12:07:07;;;;;;;2.75;1.30;;;20.80;72.40;;;;;;5114907;28;20169;-71
2023/10/03 12:09:32;;;;;;;3.30;1.55;;;20.80;72.30;;;;;;5115328;28;20170;-71
2023/10/03 12:11:58;;;;;;;4.43;1.70;;;20.80;72.10;;;;;;5114310;28;20218;-72
2023/10/03 12:14:23;;;;;;;1.90;1.40;;;20.90;72.10;;;;;;5114723;28;20209;-72
2023/10/03 12:16:51;;;;;;;3.13;1.33;;;20.90;72.10;;;;;;5115169;28;20201;-70
2023/10/03 12:19:19;;;;;;;2.00;1.25;;;20.90;72.10;;;;;;5113849;28;20255;-72
2023/10/03 12:21:45;;;;;;;1.98;1.40;;;20.80;72.20;;;;;;5114246;28;20173;-73
2023/10/03 12:24:14;;;;;;;3.10;1.58;;;20.80;72.40;;;;;;5113927;28;20169;-70
2023/10/03 12:26:40;;;;;;;2.97;1.67;;;20.90;72.20;;;;;;5114815;28;20248;-71
2023/10/03 12:29:06;;;;;;;3.28;1.48;;;20.90;72.20;;;;;;5114714;28;20177;-69
2023/10/03 12:31:32;;;;;;;2.38;1.30;;;20.90;72.00;;;;;;5113928;28;20542;-69
2023/10/03 12:34:00;;;;;;;2.00;1.33;;;20.90;71.90;;;;;;5114364;28;20216;-72
2023/10/03 12:36:26;;;;;;;2.13;1.00;;;20.90;71.90;;;;;;5114678;28;20177;-74
2023/10/03 12:38:52;;;;;;;3.42;1.30;;;21.00;71.90;;;;;;5114059;28;20185;-72
2023/10/03 12:41:19;;;;;;;3.08;1.30;;;21.00;71.90;;;;;;5114214;28;20184;-68
2023/10/03 12:43:48;;;;;;;2.88;1.50;;;20.90;71.90;;;;;;5114553;28;20169;-67
2023/10/03 12:46:14;;;;;;;2.35;1.40;;;20.90;71.90;;;;;;5113196;28;20309;-67
2023/10/03 12:48:40;;;;;;;1.55;1.40;;;20.90;72.10;;;;;;5114304;28;20210;-67
2023/10/03 12:51:05;;;;;;;4.55;1.95;;;20.80;72.10;;;;;;5114250;28;20177;-67
2023/10/03 12:53:35;;;;;;;3.42;1.88;;;20.80;72.50;;;;;;5113515;28;20209;-68
2023/10/03 12:56:03;;;;;;;2.83;1.70;;;20.80;72.70;;;;;;5114163;28;20181;-67